createdAt,value
2023-10-06T00:02:32.308Z,23.20
2023-10-06T00:05:00.267Z,23.10
2023-10-06T00:07:28.068Z,23.10
2023-10-06T00:09:56.793Z,23.10
2023-10-06T00:12:27.800Z,23.10
2023-10-06T00:14:57.504Z,23.20
2023-10-06T00:17:29.890Z,23.30
2023-10-06T00:19:58.559Z,23.20
2023-10-06T00:22:28.340Z,23.20
2023-10-06T00:25:01.351Z,23.20
2023-10-06T00:27:32.381Z,23.20
2023-10-06T00:30:00.336Z,23.40
2023-10-06T00:32:28.331Z,23.30
2023-10-06T00:35:09.941Z,23.30
2023-10-06T00:37:40.597Z,23.30
2023-10-06T00:40:20.838Z,23.30
2023-10-06T00:42:58.425Z,23.30
2023-10-06T00:45:26.263Z,23.40
2023-10-06T00:47:55.409Z,23.20
2023-10-06T00:50:25.926Z,23.30
2023-10-06T00:52:57.310Z,23.40
2023-10-06T00:55:25.303Z,23.40
2023-10-06T00:57:55.928Z,23.40
2023-10-06T01:00:26.496Z,23.30
2023-10-06T01:02:54.263Z,23.40
2023-10-06T01:05:22.019Z,23.40
2023-10-06T01:07:51.611Z,23.30
2023-10-06T01:10:29.311Z,23.20
2023-10-06T01:12:58.736Z,23.20
2023-10-06T01:15:31.183Z,23.10
2023-10-06T01:18:00.745Z,23.20
2023-10-06T01:20:43.094Z,23.00
2023-10-06T01:23:22.124Z,23.00
2023-10-06T01:25:55.086Z,22.80
2023-10-06T01:28:25.277Z,22.90
2023-10-06T01:30:53.396Z,23.00
2023-10-06T01:33:21.121Z,22.90
2023-10-06T01:35:49.310Z,22.90
2023-10-06T01:38:24.100Z,22.80
2023-10-06T01:40:56.197Z,22.90
2023-10-06T01:43:24.548Z,22.80
2023-10-06T01:45:53.394Z,22.80
2023-10-06T01:48:21.190Z,22.80
2023-10-06T01:50:51.914Z,22.80
2023-10-06T01:53:22.681Z,22.80
2023-10-06T01:55:53.515Z,22.80
2023-10-06T01:58:21.747Z,22.80
2023-10-06T02:00:49.913Z,22.80
2023-10-06T02:03:19.458Z,22.90
2023-10-06T02:05:47.643Z,22.90
2023-10-06T02:08:25.145Z,22.90
2023-10-06T02:10:52.965Z,22.90
2023-10-06T02:13:23.617Z,22.90
2023-10-06T02:16:00.604Z,22.90
2023-10-06T02:18:37.578Z,22.80
2023-10-06T02:21:33.206Z,22.80
2023-10-06T02:24:05.162Z,22.90
2023-10-06T02:26:38.001Z,22.80
2023-10-06T02:29:21.122Z,22.70
2023-10-06T02:31:49.014Z,22.70
2023-10-06T02:34:31.848Z,22.60
2023-10-06T02:37:01.663Z,22.70
2023-10-06T02:39:35.760Z,22.60
2023-10-06T02:42:08.988Z,22.60
2023-10-06T02:44:43.158Z,22.60
2023-10-06T02:47:13.316Z,22.50
2023-10-06T02:50:01.380Z,22.60
2023-10-06T02:52:39.195Z,22.60
2023-10-06T02:55:10.746Z,22.60
2023-10-06T02:57:40.104Z,22.60
2023-10-06T03:00:20.707Z,22.80
2023-10-06T03:02:57.666Z,22.80
2023-10-06T03:05:49.104Z,22.80
2023-10-06T03:08:22.181Z,22.80
2023-10-06T03:10:50.800Z,22.90
2023-10-06T03:13:37.950Z,22.80
2023-10-06T03:16:12.079Z,22.70
2023-10-06T03:18:41.151Z,22.70
2023-10-06T03:21:13.077Z,22.80
2023-10-06T03:23:45.599Z,22.70
2023-10-06T03:26:33.759Z,22.60
2023-10-06T03:29:04.752Z,22.60
2023-10-06T03:31:47.746Z,22.60
2023-10-06T03:34:19.260Z,22.70
2023-10-06T03:36:47.825Z,22.60
2023-10-06T03:39:23.741Z,22.60
2023-10-06T03:41:55.097Z,22.60
2023-10-06T03:44:28.286Z,22.70
2023-10-06T03:46:57.105Z,22.70
2023-10-06T03:49:27.907Z,22.70
2023-10-06T03:51:58.670Z,22.70
2023-10-06T03:54:26.355Z,22.80
2023-10-06T03:56:55.541Z,22.80
2023-10-06T03:59:24.995Z,22.70
2023-10-06T04:01:53.457Z,22.70
2023-10-06T04:04:24.266Z,22.70
2023-10-06T04:06:52.080Z,22.60
2023-10-06T04:09:30.063Z,22.50
2023-10-06T04:12:03.099Z,22.40
2023-10-06T04:14:33.409Z,22.30
2023-10-06T04:17:07.472Z,22.30
2023-10-06T04:19:35.838Z,22.20
2023-10-06T04:22:05.108Z,22.30
2023-10-06T04:24:32.962Z,22.20
2023-10-06T04:27:01.553Z,22.30
2023-10-06T04:29:32.630Z,22.30
2023-10-06T04:32:01.065Z,22.30
2023-10-06T04:34:28.756Z,22.20
2023-10-06T04:36:58.769Z,22.20
2023-10-06T04:39:28.412Z,22.30
2023-10-06T04:42:00.852Z,22.20
2023-10-06T04:44:30.254Z,22.30
2023-10-06T04:46:58.008Z,22.10
2023-10-06T04:49:25.759Z,22.10
2023-10-06T04:51:53.431Z,22.00
2023-10-06T04:54:21.962Z,22.00
2023-10-06T04:56:53.660Z,22.00
2023-10-06T04:59:21.396Z,21.90
2023-10-06T05:02:07.910Z,21.90
2023-10-06T05:04:36.717Z,21.90
2023-10-06T05:07:05.125Z,21.90
2023-10-06T05:09:32.826Z,21.80
2023-10-06T05:12:00.574Z,21.70
2023-10-06T05:14:29.241Z,21.80
2023-10-06T05:16:56.741Z,21.90
2023-10-06T05:19:24.448Z,21.80
2023-10-06T05:21:54.261Z,21.90
2023-10-06T05:24:22.069Z,21.80
2023-10-06T05:26:50.792Z,21.80
2023-10-06T05:29:19.365Z,21.90
2023-10-06T05:31:47.334Z,21.90
2023-10-06T05:34:19.102Z,21.80
2023-10-06T05:36:46.814Z,21.80
2023-10-06T05:39:14.560Z,21.80
2023-10-06T05:41:46.175Z,21.80
2023-10-06T05:44:13.982Z,21.60
2023-10-06T05:46:43.367Z,21.60
2023-10-06T05:49:12.861Z,21.60
2023-10-06T05:51:41.298Z,21.60
2023-10-06T05:54:23.296Z,21.60
2023-10-06T05:56:54.750Z,21.60
2023-10-06T05:59:23.199Z,21.50
2023-10-06T06:02:02.377Z,21.60
2023-10-06T06:04:30.234Z,21.60
2023-10-06T06:06:59.109Z,21.60
2023-10-06T06:09:27.053Z,21.50
2023-10-06T06:11:54.894Z,21.60
2023-10-06T06:14:23.505Z,21.70
2023-10-06T06:16:52.002Z,21.70
2023-10-06T06:19:19.997Z,21.80
2023-10-06T06:21:48.765Z,21.80
2023-10-06T06:24:21.973Z,21.80
2023-10-06T06:26:50.835Z,21.80
2023-10-06T06:29:21.206Z,21.90
2023-10-06T06:31:51.418Z,21.80
2023-10-06T06:34:19.397Z,21.90
2023-10-06T06:36:48.778Z,22.00
2023-10-06T06:39:18.533Z,22.00
2023-10-06T06:41:46.271Z,22.10
2023-10-06T06:44:14.773Z,22.00
2023-10-06T06:46:43.726Z,22.00
2023-10-06T06:49:11.796Z,22.10
2023-10-06T06:51:39.646Z,22.00
2023-10-06T06:54:07.416Z,22.10
2023-10-06T06:56:35.310Z,22.30
2023-10-06T06:59:03.279Z,22.30
2023-10-06T07:01:31.101Z,22.30
2023-10-06T07:04:03.032Z,22.40
2023-10-06T07:06:33.002Z,22.60
2023-10-06T07:09:01.597Z,22.60
2023-10-06T07:11:29.750Z,22.70
2023-10-06T07:13:57.549Z,22.90
2023-10-06T07:16:26.336Z,22.90
2023-10-06T07:18:54.970Z,22.80
2023-10-06T07:21:24.253Z,22.90
2023-10-06T07:23:53.771Z,23.10
2023-10-06T07:26:24.055Z,23.20
2023-10-06T07:28:55.956Z,23.30
2023-10-06T07:31:26.647Z,23.40
2023-10-06T07:33:59.621Z,23.40
2023-10-06T07:36:27.750Z,23.50
2023-10-06T07:38:55.438Z,23.70
2023-10-06T07:41:28.969Z,23.80
2023-10-06T07:43:57.664Z,23.90
2023-10-06T07:46:25.448Z,24.10
2023-10-06T07:48:53.338Z,24.30
2023-10-06T07:51:21.290Z,24.40
2023-10-06T07:53:50.009Z,24.40
2023-10-06T07:56:20.570Z,24.60
2023-10-06T07:58:48.697Z,24.80
2023-10-06T08:01:20.234Z,24.90
2023-10-06T08:03:48.008Z,25.10
2023-10-06T08:06:16.604Z,25.10
2023-10-06T08:08:44.420Z,25.10
2023-10-06T08:11:14.854Z,25.20
2023-10-06T08:13:43.968Z,25.40
2023-10-06T08:16:14.431Z,25.50
2023-10-06T08:18:42.216Z,25.60
2023-10-06T08:21:12.694Z,25.80
2023-10-06T08:23:41.012Z,25.80
2023-10-06T08:26:15.680Z,26.00
2023-10-06T08:28:43.654Z,26.10
2023-10-06T08:31:18.394Z,26.10
2023-10-06T08:33:47.769Z,26.30
2023-10-06T08:36:16.225Z,26.60
2023-10-06T08:38:48.378Z,26.90
2023-10-06T08:41:22.814Z,27.20
2023-10-06T08:43:52.843Z,27.40
2023-10-06T08:46:21.476Z,27.50
2023-10-06T08:48:49.554Z,27.80
2023-10-06T08:51:20.916Z,27.80
2023-10-06T08:53:51.136Z,28.10
2023-10-06T08:56:19.122Z,28.30
2023-10-06T08:58:47.159Z,28.50
2023-10-06T09:01:15.554Z,28.80
2023-10-06T09:03:43.392Z,28.80
2023-10-06T09:06:13.422Z,28.80
2023-10-06T09:08:45.886Z,29.10
2023-10-06T09:11:15.029Z,29.40
2023-10-06T09:13:43.765Z,29.70
2023-10-06T09:16:13.650Z,30.20
2023-10-06T09:18:42.292Z,30.30
2023-10-06T09:21:18.031Z,30.40
2023-10-06T09:23:46.253Z,30.40
2023-10-06T09:26:15.049Z,30.50
2023-10-06T09:28:54.722Z,30.50
2023-10-06T09:31:40.806Z,30.50
2023-10-06T09:34:11.460Z,30.80
2023-10-06T09:36:47.478Z,30.90
2023-10-06T09:39:28.113Z,31.00
2023-10-06T09:41:55.997Z,31.00
2023-10-06T09:44:25.102Z,31.10
2023-10-06T09:49:42.530Z,31.20
2023-10-06T09:52:10.833Z,31.30
2023-10-06T09:54:40.189Z,31.50
2023-10-06T09:57:10.339Z,31.60
2023-10-06T09:59:42.039Z,31.60
2023-10-06T10:02:13.493Z,31.40
2023-10-06T10:04:42.784Z,31.40
2023-10-06T10:07:11.118Z,31.40
2023-10-06T10:09:39.263Z,31.50
2023-10-06T10:12:15.322Z,31.40
2023-10-06T10:15:01.580Z,31.40
2023-10-06T10:17:52.793Z,31.50
2023-10-06T10:20:21.152Z,31.60
2023-10-06T10:22:49.095Z,31.70
2023-10-06T10:25:26.405Z,31.60
2023-10-06T10:28:21.114Z,31.60
2023-10-06T10:30:58.487Z,31.60
2023-10-06T10:33:31.694Z,31.80
2023-10-06T10:36:16.563Z,31.90
2023-10-06T10:38:44.497Z,31.90
2023-10-06T10:41:13.644Z,31.90
2023-10-06T10:43:47.063Z,31.90
2023-10-06T10:46:14.913Z,32.00
2023-10-06T10:48:52.424Z,32.20
2023-10-06T10:51:24.476Z,32.00
2023-10-06T10:53:54.020Z,32.00
2023-10-06T10:56:26.681Z,32.00
2023-10-06T10:58:56.007Z,32.10
2023-10-06T11:01:37.607Z,32.20
2023-10-06T11:04:14.681Z,32.30
2023-10-06T11:06:47.398Z,32.10
2023-10-06T11:09:32.320Z,32.30
2023-10-06T11:12:26.176Z,32.20
2023-10-06T11:14:58.600Z,32.10
2023-10-06T11:17:31.581Z,32.20
2023-10-06T11:20:15.372Z,32.10
2023-10-06T11:23:00.441Z,32.30
2023-10-06T11:25:30.260Z,32.30
2023-10-06T11:28:08.479Z,32.20
2023-10-06T11:30:42.065Z,32.20
2023-10-06T11:33:11.951Z,31.90
2023-10-06T11:35:42.347Z,32.10
2023-10-06T11:38:13.687Z,32.20
2023-10-06T11:40:42.632Z,32.00
2023-10-06T11:43:14.174Z,32.10
2023-10-06T11:45:46.416Z,32.20
2023-10-06T11:48:31.553Z,32.10
2023-10-06T11:51:14.428Z,32.10
2023-10-06T11:53:43.013Z,32.00
2023-10-06T11:56:17.323Z,31.80
2023-10-06T11:58:46.610Z,31.80
2023-10-06T12:01:29.293Z,32.10
2023-10-06T12:04:07.202Z,32.20
2023-10-06T12:06:40.693Z,32.20
2023-10-06T12:09:15.139Z,32.30
2023-10-06T12:11:43.422Z,32.00
2023-10-06T12:14:12.700Z,31.70
2023-10-06T12:16:47.002Z,31.70
2023-10-06T12:19:15.561Z,31.80
2023-10-06T12:21:44.557Z,31.80
2023-10-06T12:24:13.271Z,31.80
2023-10-06T12:26:41.398Z,31.70
2023-10-06T12:29:09.538Z,31.60
2023-10-06T12:31:38.493Z,31.50
2023-10-06T12:34:06.343Z,31.70
2023-10-06T12:36:36.377Z,31.80
2023-10-06T12:39:06.753Z,31.80
2023-10-06T12:41:34.624Z,31.70
2023-10-06T12:44:06.708Z,31.80
2023-10-06T12:46:35.094Z,32.00
2023-10-06T12:49:08.623Z,31.90
2023-10-06T12:51:37.785Z,31.90
2023-10-06T12:54:05.832Z,31.80
2023-10-06T12:56:33.912Z,32.10
2023-10-06T12:59:01.707Z,32.10
2023-10-06T13:01:32.656Z,32.10
2023-10-06T13:04:01.214Z,32.10
2023-10-06T13:06:31.711Z,32.00
2023-10-06T13:09:04.021Z,31.90
2023-10-06T13:11:32.327Z,31.90
2023-10-06T13:14:04.872Z,31.70
2023-10-06T13:16:34.663Z,31.70
2023-10-06T13:19:02.648Z,31.90
2023-10-06T13:21:30.340Z,32.00
2023-10-06T13:24:03.241Z,32.20
2023-10-06T13:26:42.772Z,32.10
2023-10-06T13:29:11.897Z,32.20
2023-10-06T13:31:40.990Z,32.00
2023-10-06T13:34:09.717Z,32.00
2023-10-06T13:36:37.918Z,32.00
2023-10-06T13:39:17.291Z,31.90
2023-10-06T13:41:45.294Z,31.90
2023-10-06T13:44:13.227Z,31.90
2023-10-06T13:46:42.110Z,31.90
2023-10-06T13:49:09.969Z,32.00
2023-10-06T13:51:37.796Z,32.10
2023-10-06T13:54:07.328Z,32.00
2023-10-06T13:56:38.158Z,32.10
2023-10-06T13:59:06.425Z,32.20
2023-10-06T14:01:37.368Z,32.40
2023-10-06T14:04:05.590Z,32.40
2023-10-06T14:06:33.422Z,32.30
2023-10-06T14:09:01.262Z,32.20
2023-10-06T14:11:31.975Z,32.20
2023-10-06T14:14:03.120Z,32.20
2023-10-06T14:16:34.497Z,32.20
2023-10-06T14:19:02.876Z,31.80
2023-10-06T14:21:30.785Z,31.60
2023-10-06T14:23:58.957Z,31.50
2023-10-06T14:26:28.018Z,31.40
2023-10-06T14:28:56.207Z,31.40
2023-10-06T14:31:39.076Z,31.50
2023-10-06T14:34:29.759Z,31.30
2023-10-06T14:37:01.280Z,31.20
2023-10-06T14:39:47.257Z,31.20
2023-10-06T14:42:33.212Z,31.30
2023-10-06T14:45:19.674Z,31.20
2023-10-06T14:47:48.037Z,31.10
2023-10-06T14:50:19.623Z,31.20
2023-10-06T14:52:47.615Z,31.00
2023-10-06T14:55:15.771Z,30.80
2023-10-06T14:57:43.871Z,30.80
2023-10-06T15:00:15.192Z,30.70
2023-10-06T15:02:49.131Z,30.60
2023-10-06T15:05:17.200Z,30.60
2023-10-06T15:07:45.294Z,30.50
2023-10-06T15:10:19.798Z,30.40
2023-10-06T15:12:48.003Z,30.50
2023-10-06T15:15:17.290Z,30.30
2023-10-06T15:17:53.986Z,30.30
2023-10-06T15:20:30.288Z,30.40
2023-10-06T15:22:58.243Z,30.50
2023-10-06T15:25:26.141Z,30.50
2023-10-06T15:27:53.996Z,30.60
2023-10-06T15:30:21.930Z,30.60
2023-10-06T15:32:50.306Z,30.40
2023-10-06T15:35:18.102Z,30.50
2023-10-06T15:37:45.990Z,30.50
2023-10-06T15:40:18.111Z,30.50
2023-10-06T15:42:45.996Z,30.80
2023-10-06T15:45:15.357Z,30.60
2023-10-06T15:47:43.238Z,30.60
2023-10-06T15:50:22.457Z,30.50
2023-10-06T15:52:51.107Z,30.60
2023-10-06T15:55:18.953Z,30.50
2023-10-06T15:57:47.066Z,30.30
2023-10-06T16:00:15.894Z,30.30
2023-10-06T16:02:48.344Z,30.20
2023-10-06T16:05:17.562Z,30.00
2023-10-06T16:07:45.418Z,29.80
2023-10-06T16:10:15.260Z,29.90
2023-10-06T16:12:43.403Z,29.70
2023-10-06T16:15:11.276Z,29.80
2023-10-06T16:17:42.048Z,29.80
2023-10-06T16:20:11.417Z,29.60
2023-10-06T16:22:41.155Z,29.40
2023-10-06T16:25:10.416Z,29.30
2023-10-06T16:27:38.188Z,29.20
2023-10-06T16:30:07.839Z,29.20
2023-10-06T16:32:35.959Z,29.20
2023-10-06T16:35:05.663Z,29.10
2023-10-06T16:37:34.937Z,29.00
2023-10-06T16:40:06.017Z,29.00
2023-10-06T16:42:34.063Z,28.90
2023-10-06T16:45:03.247Z,28.80
2023-10-06T16:47:31.227Z,28.70
2023-10-06T16:49:59.439Z,28.50
2023-10-06T16:52:27.222Z,28.40
2023-10-06T16:54:55.150Z,28.40
2023-10-06T16:57:22.941Z,28.40
2023-10-06T16:59:52.181Z,28.40
2023-10-06T17:02:20.126Z,28.30
2023-10-06T17:04:47.938Z,28.30
2023-10-06T17:07:15.721Z,28.20
2023-10-06T17:09:44.500Z,28.00
2023-10-06T17:12:12.314Z,27.90
2023-10-06T17:14:40.218Z,27.90
2023-10-06T17:17:08.021Z,27.80
2023-10-06T17:19:35.981Z,27.80
2023-10-06T17:22:03.823Z,27.70
2023-10-06T17:24:32.866Z,27.60
2023-10-06T17:27:00.825Z,27.60
2023-10-06T17:29:28.822Z,27.40
2023-10-06T17:31:58.905Z,27.50
2023-10-06T17:34:26.805Z,27.40
2023-10-06T17:37:03.967Z,27.30
2023-10-06T17:39:42.558Z,27.30
2023-10-06T17:42:12.082Z,27.30
2023-10-06T17:44:44.481Z,27.10
2023-10-06T17:47:12.359Z,27.20
2023-10-06T17:49:41.000Z,27.10
2023-10-06T17:52:10.799Z,27.00
2023-10-06T17:54:38.762Z,27.00
2023-10-06T17:57:07.336Z,26.90
2023-10-06T17:59:36.260Z,26.80
2023-10-06T18:02:06.196Z,26.90
2023-10-06T18:04:34.927Z,26.80
2023-10-06T18:07:02.900Z,26.90
2023-10-06T18:09:32.391Z,26.60
2023-10-06T18:12:24.289Z,26.70
2023-10-06T18:14:50.335Z,26.60
2023-10-06T18:17:18.243Z,26.50
2023-10-06T18:19:46.107Z,26.60
2023-10-06T18:22:14.206Z,26.50
2023-10-06T18:24:42.147Z,26.50
2023-10-06T18:27:11.251Z,26.50
2023-10-06T18:29:39.115Z,26.50
2023-10-06T18:32:06.951Z,26.50
2023-10-06T18:34:35.724Z,26.40
2023-10-06T18:37:03.682Z,26.40
2023-10-06T18:39:32.994Z,26.40
2023-10-06T18:42:00.840Z,26.40
2023-10-06T18:44:28.819Z,26.30
2023-10-06T18:46:56.698Z,26.20
2023-10-06T18:49:24.668Z,26.20
2023-10-06T18:51:52.876Z,26.20
2023-10-06T18:54:20.726Z,26.20
2023-10-06T18:56:49.857Z,26.30
2023-10-06T18:59:17.960Z,26.20
2023-10-06T19:01:45.923Z,26.10
2023-10-06T19:04:14.352Z,26.00
2023-10-06T19:06:42.707Z,25.90
2023-10-06T19:09:16.893Z,25.90
2023-10-06T19:11:44.943Z,25.80
2023-10-06T19:14:12.804Z,25.90
2023-10-06T19:16:42.558Z,25.70
2023-10-06T19:19:11.393Z,25.70
2023-10-06T19:21:39.545Z,25.60
2023-10-06T19:24:08.811Z,25.50
2023-10-06T19:26:39.268Z,25.50
2023-10-06T19:29:09.352Z,25.50
2023-10-06T19:31:37.769Z,25.30
2023-10-06T19:34:05.724Z,25.20
2023-10-06T19:36:36.138Z,25.20
2023-10-06T19:39:06.182Z,25.20
2023-10-06T19:41:34.025Z,25.20
2023-10-06T19:44:01.916Z,25.00
2023-10-06T19:46:29.996Z,25.00
2023-10-06T19:48:57.849Z,25.10
2023-10-06T19:51:26.302Z,25.20
2023-10-06T19:53:54.245Z,25.00
2023-10-06T19:56:25.837Z,25.00
2023-10-06T19:58:56.798Z,24.90
2023-10-06T20:01:26.171Z,25.00
2023-10-06T20:03:54.340Z,25.20
2023-10-06T20:06:22.336Z,25.20
2023-10-06T20:08:50.295Z,25.20
2023-10-06T20:11:20.860Z,25.30
2023-10-06T20:13:48.888Z,25.40
2023-10-06T20:16:17.990Z,25.50
2023-10-06T20:18:46.809Z,25.50
2023-10-06T20:21:14.819Z,25.60
2023-10-06T20:23:43.045Z,25.60
2023-10-06T20:26:11.006Z,25.70
2023-10-06T20:28:38.923Z,25.50
2023-10-06T20:31:06.835Z,25.50
2023-10-06T20:33:34.928Z,25.50
2023-10-06T20:36:03.216Z,25.50
2023-10-06T20:38:32.840Z,25.50
2023-10-06T20:41:00.854Z,25.40
2023-10-06T20:43:29.449Z,25.40
2023-10-06T20:45:59.913Z,25.40
2023-10-06T20:48:27.878Z,25.40
2023-10-06T20:50:55.905Z,25.40
2023-10-06T20:53:24.760Z,25.20
2023-10-06T20:55:59.888Z,25.20
2023-10-06T20:58:27.831Z,25.30
2023-10-06T21:00:56.499Z,25.30
2023-10-06T21:03:27.175Z,25.30
2023-10-06T21:05:57.403Z,25.20
2023-10-06T21:08:25.384Z,25.20
2023-10-06T21:10:53.260Z,25.10
2023-10-06T21:13:21.140Z,25.10
2023-10-06T21:15:49.106Z,25.00
2023-10-06T21:18:17.001Z,25.10
2023-10-06T21:20:44.825Z,25.10
2023-10-06T21:23:13.380Z,25.10
2023-10-06T21:25:41.465Z,25.00
2023-10-06T21:28:09.350Z,25.10
2023-10-06T21:30:37.247Z,25.10
2023-10-06T21:33:05.429Z,25.20
2023-10-06T21:35:33.647Z,25.20
2023-10-06T21:38:01.748Z,25.20
2023-10-06T21:40:29.641Z,25.20
2023-10-06T21:42:58.343Z,25.30
2023-10-06T21:45:26.301Z,25.30
2023-10-06T21:47:54.128Z,25.30
2023-10-06T21:50:21.994Z,25.30
2023-10-06T21:52:50.072Z,25.30
2023-10-06T21:55:18.655Z,25.40
2023-10-06T21:57:46.631Z,25.40
2023-10-06T22:00:39.054Z,25.30
2023-10-06T22:03:09.201Z,25.20
2023-10-06T22:05:37.200Z,25.40
2023-10-06T22:08:07.848Z,25.30
2023-10-06T22:10:37.802Z,25.20
2023-10-06T22:13:05.891Z,25.30
2023-10-06T22:15:33.769Z,25.30
2023-10-06T22:18:01.803Z,25.30
2023-10-06T22:20:32.398Z,25.30
2023-10-06T22:23:00.779Z,25.20
2023-10-06T22:25:28.878Z,25.00
2023-10-06T22:27:56.938Z,25.00
2023-10-06T22:30:25.295Z,25.00
2023-10-06T22:32:53.772Z,24.90
2023-10-06T22:35:23.338Z,25.00
2023-10-06T22:37:51.333Z,25.00
2023-10-06T22:40:19.342Z,24.90
2023-10-06T22:42:50.245Z,24.90
2023-10-06T22:45:21.650Z,24.90
2023-10-06T22:47:50.510Z,24.90
2023-10-06T22:50:20.752Z,24.90
2023-10-06T22:52:51.482Z,24.90
2023-10-06T22:55:20.464Z,24.90
2023-10-06T22:57:49.904Z,24.90
2023-10-06T23:00:22.231Z,24.80
2023-10-06T23:02:53.719Z,24.80
2023-10-06T23:05:25.274Z,24.70
2023-10-06T23:07:54.418Z,24.70
2023-10-06T23:10:28.185Z,24.60
2023-10-06T23:12:57.172Z,24.60
2023-10-06T23:15:25.272Z,24.60
2023-10-06T23:17:58.078Z,24.60
2023-10-06T23:20:27.111Z,24.30
2023-10-06T23:22:59.861Z,24.20
2023-10-06T23:25:40.268Z,24.20
2023-10-06T23:28:08.802Z,24.10
2023-10-06T23:30:40.642Z,24.10
2023-10-06T23:33:08.832Z,24.00
2023-10-06T23:35:36.644Z,23.90
2023-10-06T23:38:08.294Z,24.00
2023-10-06T23:40:40.156Z,23.90
2023-10-06T23:43:08.043Z,23.80
2023-10-06T23:45:38.397Z,23.70
2023-10-06T23:48:11.571Z,23.60
2023-10-06T23:50:55.589Z,23.60
2023-10-06T23:53:25.085Z,23.60
2023-10-06T23:55:54.369Z,23.70
2023-10-06T23:58:22.450Z,23.80
